Terminal Aerodrome Forecast
Issued by NWS

Home | Current Version | Previous Version | Text Only | Print | Product List | Glossary On
Versions: 1 2 3 4 5 6 7 8 9 10 11 12 13 14 15 16
000
FTUS42 KTBW 210800 AAA
TAFPGD
TAF AMD
KPGD 210859Z 2109/2206 VRB03KT 6SM BR SCT090 SCT150
      TEMPO 2109/2113 3SM BR
     FM211400 16007KT P6SM SCT030 BKN080 BKN250
     FM211900 18007KT P6SM BKN070 BKN200
     FM220000 15005KT P6SM VCSH BKN060 BKN120=

USA.gov is the U.S. government's official web portal to all federal, state and local government web resources and services.